Time;durP1;ratioP1;P1;durP2;ratioP2;P2;SDS_P1;SDS_P2;PMS_P1;PMS_P2;Temp;Humidity;BMP_temperature;BMP_pressure;BME280_temperature;BME280_humidity;BME280_pressure;Samples;Min_cycle;Max_cycle;Signal;HPM_P1;HPM_P2
2023/08/18 00:00:08;;;;;;;2.40;2.20;;;20.90;78.30;;;;;;6169358;23;20234;-88
2023/08/18 00:02:42;;;;;;;2.20;2.00;;;20.90;78.30;;;;;;6168730;23;20168;-88
2023/08/18 00:05:09;;;;;;;2.67;2.47;;;20.90;78.30;;;;;;6144066;23;20191;-89
2023/08/18 00:07:34;;;;;;;2.95;2.63;;;20.90;78.30;;;;;;6193381;23;20125;-89
2023/08/18 00:10:05;;;;;;;2.97;2.58;;;20.90;78.30;;;;;;6144576;23;20203;-88
2023/08/18 00:12:34;;;;;;;2.90;2.60;;;20.90;78.30;;;;;;6167684;23;20184;-88
2023/08/18 00:15:01;;;;;;;2.63;2.38;;;20.90;78.30;;;;;;6163388;23;20154;-88
2023/08/18 00:17:27;;;;;;;3.75;2.72;;;20.90;78.30;;;;;;6188838;23;20150;-88
2023/08/18 00:19:53;;;;;;;2.63;2.40;;;20.90;78.30;;;;;;6163702;23;20154;-87
2023/08/18 00:22:21;;;;;;;2.65;2.30;;;20.90;78.30;;;;;;6188502;23;20169;-88
2023/08/18 00:24:52;;;;;;;2.70;2.50;;;20.90;78.30;;;;;;6163357;23;20628;-87
2023/08/18 00:27:21;;;;;;;2.40;2.20;;;20.90;78.30;;;;;;6163341;23;20142;-87
2023/08/18 00:29:50;;;;;;;2.55;2.35;;;20.90;78.30;;;;;;6163478;23;20217;-87
2023/08/18 00:32:16;;;;;;;2.70;2.50;;;20.90;78.30;;;;;;6115448;23;20618;-88
2023/08/18 00:34:47;;;;;;;2.78;2.45;;;20.90;78.30;;;;;;6163691;23;20192;-88
2023/08/18 00:37:20;;;;;;;2.95;2.67;;;20.90;78.30;;;;;;6164155;23;20150;-88
2023/08/18 00:39:49;;;;;;;3.20;2.50;;;20.80;78.10;;;;;;6166595;23;20235;-87
2023/08/18 00:42:17;;;;;;;2.40;2.20;;;20.90;78.30;;;;;;6190182;23;20150;-88
2023/08/18 00:44:44;;;;;;;2.95;2.58;;;20.90;78.30;;;;;;6164688;23;20198;-88
2023/08/18 00:47:11;;;;;;;2.58;2.38;;;20.90;78.30;;;;;;6175878;23;20232;-88
2023/08/18 00:49:46;;;;;;;3.65;2.40;;;20.90;78.30;;;;;;6171755;23;20129;-87
2023/08/18 00:52:12;;;;;;;2.80;2.60;;;20.90;78.30;;;;;;6146484;23;20157;-88
2023/08/18 00:54:45;;;;;;;2.58;2.35;;;20.80;78.70;;;;;;6171866;23;20137;-88
2023/08/18 00:57:11;;;;;;;2.53;2.33;;;20.80;78.30;;;;;;6165147;23;20184;-88
2023/08/18 00:59:59;;;;;;;4.15;2.47;;;20.80;78.40;;;;;;6131059;23;20151;-87
2023/08/18 01:02:37;;;;;;;2.53;2.33;;;20.90;78.40;;;;;;6086041;23;20155;-88
2023/08/18 01:05:04;;;;;;;2.50;2.30;;;20.90;79.30;;;;;;6084627;23;20158;-88
2023/08/18 01:07:30;;;;;;;2.70;2.50;;;20.80;78.40;;;;;;5995986;23;20192;-89
2023/08/18 01:10:01;;;;;;;2.70;2.40;;;20.80;78.50;;;;;;6043772;23;20161;-88
2023/08/18 01:12:48;;;;;;;3.08;2.47;;;20.90;78.70;;;;;;5986928;23;20202;-88
2023/08/18 01:15:33;;;;;;;2.60;2.40;;;20.80;78.50;;;;;;5931163;24;20186;-88
2023/08/18 01:18:03;;;;;;;3.15;2.50;;;20.80;78.50;;;;;;5932119;24;20581;-89
2023/08/18 01:20:32;;;;;;;2.88;2.53;;;20.80;78.50;;;;;;5954417;24;20156;-88
2023/08/18 01:23:03;;;;;;;2.55;2.35;;;20.90;78.60;;;;;;5931654;24;20160;-88
2023/08/18 01:26:16;;;;;;;2.40;2.20;;;20.80;78.50;;;;;;5908820;24;20293;-88
2023/08/18 01:28:19;;;;;;;2.80;2.30;;;20.80;78.60;;;;;;5950571;24;20152;-89
2023/08/18 01:30:56;;;;;;;2.47;2.20;;;20.80;78.60;;;;;;5936812;24;20162;-88
2023/08/18 01:33:38;;;;;;;2.65;2.20;;;20.80;78.60;;;;;;5938146;24;20722;-88
2023/08/18 01:36:14;;;;;;;2.80;2.50;;;20.80;78.70;;;;;;5971071;23;20179;-88
2023/08/18 01:38:59;;;;;;;2.83;2.53;;;20.80;78.70;;;;;;5998981;23;20157;-89
2023/08/18 01:41:25;;;;;;;2.60;2.40;;;20.80;78.70;;;;;;6015192;23;20224;-88
2023/08/18 01:43:51;;;;;;;2.75;2.38;;;20.80;78.70;;;;;;6013171;23;20165;-89
2023/08/18 01:46:23;;;;;;;2.50;2.20;;;20.70;78.60;;;;;;6007347;23;20266;-88
2023/08/18 01:48:55;;;;;;;2.70;2.35;;;20.80;78.70;;;;;;5997722;23;20150;-88
2023/08/18 01:51:25;;;;;;;2.42;2.22;;;20.80;78.70;;;;;;6043130;23;20153;-88
2023/08/18 01:53:55;;;;;;;2.50;2.20;;;20.80;78.70;;;;;;6043142;23;20213;-88
2023/08/18 01:56:25;;;;;;;2.70;2.50;;;20.80;78.70;;;;;;6038632;23;20182;-88
2023/08/18 01:58:54;;;;;;;2.95;2.65;;;20.80;78.70;;;;;;6015057;23;20193;-89
2023/08/18 02:01:25;;;;;;;2.72;2.50;;;20.80;78.70;;;;;;6039348;23;20215;-88
2023/08/18 02:03:54;;;;;;;2.65;2.45;;;20.80;78.80;;;;;;6004096;23;20188;-88
2023/08/18 02:06:27;;;;;;;2.22;2.03;;;20.80;78.80;;;;;;5912624;24;20155;-88
2023/08/18 02:08:57;;;;;;;2.58;2.38;;;20.70;78.70;;;;;;5954335;24;20173;-88
2023/08/18 02:11:27;;;;;;;3.10;2.80;;;20.80;78.70;;;;;;5934109;23;20159;-88
2023/08/18 02:13:55;;;;;;;2.53;2.33;;;20.80;78.70;;;;;;6056969;23;20171;-88
2023/08/18 02:16:30;;;;;;;2.40;2.20;;;20.80;78.80;;;;;;6067437;23;20613;-88
2023/08/18 02:19:03;;;;;;;2.90;2.40;;;20.80;78.90;;;;;;6090913;23;20176;-88
2023/08/18 02:21:32;;;;;;;2.60;2.40;;;20.70;78.70;;;;;;6091354;23;20609;-89
2023/08/18 02:24:04;;;;;;;2.22;2.03;;;20.80;78.80;;;;;;6091196;23;20153;-89
2023/08/18 02:26:34;;;;;;;2.55;2.35;;;20.80;78.80;;;;;;6125210;23;20151;-88
2023/08/18 02:28:59;;;;;;;2.40;2.20;;;20.70;78.80;;;;;;6090239;23;20542;-88
2023/08/18 02:31:34;;;;;;;2.60;2.40;;;20.70;78.90;;;;;;6141298;23;20153;-88
2023/08/18 02:34:03;;;;;;;2.20;2.00;;;20.70;78.90;;;;;;6142584;23;20458;-88
2023/08/18 02:36:35;;;;;;;2.90;2.35;;;20.70;78.90;;;;;;6140758;23;20149;-88
2023/08/18 02:39:16;;;;;;;2.72;2.28;;;20.70;78.90;;;;;;6116801;23;20185;-88
2023/08/18 02:41:47;;;;;;;2.45;1.98;;;20.70;78.90;;;;;;6134915;23;20154;-87
2023/08/18 02:44:17;;;;;;;2.60;2.40;;;20.70;78.90;;;;;;6082199;23;20191;-88
2023/08/18 02:47:09;;;;;;;2.58;2.30;;;20.70;79.00;;;;;;6094982;23;20156;-88
2023/08/18 02:49:35;;;;;;;2.55;2.35;;;20.70;79.00;;;;;;6030701;23;20168;-89
2023/08/18 02:52:09;;;;;;;2.55;2.35;;;20.70;78.90;;;;;;6047914;23;20157;-88
2023/08/18 02:54:43;;;;;;;2.53;2.33;;;20.70;79.00;;;;;;6024911;23;20512;-89
2023/08/18 02:57:15;;;;;;;2.75;2.30;;;20.70;79.00;;;;;;6040058;23;20385;-89
2023/08/18 02:59:44;;;;;;;3.20;2.50;;;20.70;79.00;;;;;;6016529;23;20244;-89
2023/08/18 03:02:14;;;;;;;2.40;2.20;;;20.70;79.00;;;;;;6016455;23;20162;-88
2023/08/18 03:04:52;;;;;;;2.38;2.17;;;20.70;79.00;;;;;;6011710;23;20251;-89
2023/08/18 03:07:21;;;;;;;2.40;2.20;;;20.70;79.00;;;;;;5959721;24;20162;-88
2023/08/18 03:09:52;;;;;;;3.05;2.47;;;20.70;79.00;;;;;;5960176;24;20678;-89
2023/08/18 03:12:19;;;;;;;2.40;2.20;;;20.70;79.10;;;;;;5937477;24;20151;-88
2023/08/18 03:14:53;;;;;;;2.47;2.20;;;20.70;79.10;;;;;;5945809;23;20159;-87
2023/08/18 03:17:22;;;;;;;2.83;2.53;;;20.70;79.10;;;;;;5989441;23;20208;-88
2023/08/18 03:20:04;;;;;;;3.08;2.40;;;20.70;79.00;;;;;;6049096;23;20157;-88
2023/08/18 03:22:32;;;;;;;2.80;2.58;;;20.60;79.00;;;;;;5996102;23;20237;-88
2023/08/18 03:25:00;;;;;;;2.40;2.20;;;20.70;79.00;;;;;;6017021;23;20154;-87
2023/08/18 03:27:26;;;;;;;2.53;2.33;;;20.70;79.10;;;;;;6016731;23;20257;-87
2023/08/18 03:29:55;;;;;;;2.42;2.22;;;20.70;79.00;;;;;;6015941;23;20503;-87
2023/08/18 03:32:25;;;;;;;2.58;2.35;;;20.70;79.10;;;;;;6016797;23;20234;-88
2023/08/18 03:34:57;;;;;;;2.55;2.35;;;20.70;79.10;;;;;;5993962;23;20245;-88
2023/08/18 03:37:28;;;;;;;2.38;2.10;;;20.70;79.10;;;;;;5996021;23;20158;-88
2023/08/18 03:39:56;;;;;;;3.30;2.30;;;20.60;79.10;;;;;;5965131;24;20226;-88
2023/08/18 03:42:33;;;;;;;2.40;2.20;;;20.70;79.10;;;;;;6007335;23;20153;-88
2023/08/18 03:44:59;;;;;;;2.22;2.00;;;20.70;79.20;;;;;;6017979;23;20532;-88
2023/08/18 03:47:36;;;;;;;2.55;2.35;;;20.60;79.20;;;;;;5906659;23;20651;-88
2023/08/18 03:50:13;;;;;;;2.75;2.47;;;20.60;79.20;;;;;;6011174;23;20159;-88
2023/08/18 03:52:45;;;;;;;2.40;2.20;;;20.70;79.20;;;;;;5988379;23;20194;-88
2023/08/18 03:55:26;;;;;;;3.05;2.28;;;20.70;79.20;;;;;;6036589;23;20158;-88
2023/08/18 03:58:04;;;;;;;2.33;2.13;;;20.60;79.20;;;;;;5998633;23;20167;-88
2023/08/18 04:00:42;;;;;;;2.40;2.20;;;20.60;79.20;;;;;;5932575;24;20208;-88
2023/08/18 04:03:23;;;;;;;2.47;2.20;;;20.60;79.20;;;;;;5956326;24;20163;-89
2023/08/18 04:05:57;;;;;;;2.63;2.28;;;20.60;79.20;;;;;;5932872;24;20204;-89
2023/08/18 04:08:23;;;;;;;2.50;2.30;;;20.60;79.20;;;;;;5932938;24;20160;-89
2023/08/18 04:10:57;;;;;;;3.15;2.47;;;20.60;79.20;;;;;;5946118;24;20169;-88
2023/08/18 04:13:29;;;;;;;2.50;2.30;;;20.70;79.20;;;;;;5960654;24;20191;-88
2023/08/18 04:16:03;;;;;;;2.47;2.20;;;20.60;79.20;;;;;;5937835;24;20159;-88
2023/08/18 04:18:40;;;;;;;2.78;2.47;;;20.60;79.20;;;;;;5960039;24;20233;-89
2023/08/18 04:21:13;;;;;;;2.33;2.13;;;20.60;79.20;;;;;;5922752;24;20210;-88
2023/08/18 04:23:47;;;;;;;2.17;1.98;;;20.70;79.40;;;;;;5910667;24;20164;-88
2023/08/18 04:26:15;;;;;;;2.70;2.42;;;20.60;79.30;;;;;;5956108;24;20166;-88
2023/08/18 04:28:54;;;;;;;2.60;2.40;;;20.60;79.20;;;;;;5978866;23;20249;-89
2023/08/18 04:31:34;;;;;;;2.28;2.00;;;20.60;79.20;;;;;;6034026;23;20155;-88
2023/08/18 04:34:05;;;;;;;2.40;2.20;;;20.60;79.30;;;;;;6000892;23;20190;-88
2023/08/18 04:36:38;;;;;;;2.40;2.20;;;20.60;79.30;;;;;;6070618;23;20581;-88
2023/08/18 04:39:09;;;;;;;2.78;2.40;;;20.60;79.30;;;;;;6023110;23;20158;-88
2023/08/18 04:41:42;;;;;;;2.50;2.17;;;20.60;79.40;;;;;;6047881;23;20162;-88
2023/08/18 04:44:11;;;;;;;2.30;2.10;;;20.60;79.40;;;;;;6038842;23;20550;-88
2023/08/18 04:46:44;;;;;;;2.40;2.20;;;20.60;79.40;;;;;;6016702;23;20178;-88
2023/08/18 04:49:12;;;;;;;3.53;2.40;;;20.60;79.30;;;;;;6084794;23;20155;-89
2023/08/18 04:51:49;;;;;;;2.38;2.17;;;20.60;79.40;;;;;;6011922;23;20592;-89
2023/08/18 04:54:29;;;;;;;2.50;2.10;;;20.60;79.40;;;;;;6194893;23;20224;-89
2023/08/18 04:57:03;;;;;;;2.67;2.47;;;20.60;79.40;;;;;;6146562;23;20164;-89
2023/08/18 04:59:33;;;;;;;2.53;2.30;;;20.60;79.40;;;;;;6147470;23;20163;-89
2023/08/18 05:02:07;;;;;;;2.47;2.20;;;20.50;79.30;;;;;;6147396;23;20167;-89
2023/08/18 05:04:36;;;;;;;2.38;2.17;;;20.60;79.50;;;;;;6112608;23;20154;-89
2023/08/18 05:07:03;;;;;;;2.47;2.28;;;20.50;79.40;;;;;;6135952;23;20155;-89
2023/08/18 05:09:41;;;;;;;2.30;2.10;;;20.60;79.40;;;;;;6156146;23;20166;-89
2023/08/18 05:12:08;;;;;;;2.60;2.40;;;20.60;79.50;;;;;;6101794;23;20179;-89
2023/08/18 05:14:48;;;;;;;2.40;2.20;;;20.60;79.40;;;;;;6073963;23;20180;-88
2023/08/18 05:17:23;;;;;;;2.47;2.28;;;20.60;79.40;;;;;;6026906;23;20204;-89
2023/08/18 05:19:54;;;;;;;2.60;2.40;;;20.60;79.40;;;;;;6040825;23;20484;-89
2023/08/18 05:22:32;;;;;;;2.40;2.20;;;20.60;79.50;;;;;;5993538;23;20153;-89
2023/08/18 05:25:11;;;;;;;2.55;2.35;;;20.60;79.50;;;;;;6017439;23;20177;-88
2023/08/18 05:28:04;;;;;;;2.55;2.35;;;20.60;79.50;;;;;;5993266;23;20663;-88
2023/08/18 05:30:35;;;;;;;2.40;2.20;;;20.50;79.50;;;;;;6018406;23;20244;-88
2023/08/18 05:33:04;;;;;;;2.60;2.35;;;20.50;79.50;;;;;;5992468;23;20185;-88
2023/08/18 05:36:18;;;;;;;2.25;2.03;;;20.50;79.50;;;;;;6035010;23;20496;-88
2023/08/18 05:38:52;;;;;;;2.50;2.17;;;20.60;79.50;;;;;;6094522;23;20153;-88
2023/08/18 05:41:21;;;;;;;2.92;2.40;;;20.60;79.50;;;;;;5953413;23;20158;-88
2023/08/18 05:43:56;;;;;;;2.88;2.20;;;20.60;79.50;;;;;;6034460;23;20163;-88
2023/08/18 05:46:25;;;;;;;2.22;2.00;;;20.50;79.40;;;;;;6101707;23;20163;-88
2023/08/18 05:48:54;;;;;;;2.45;2.25;;;20.60;79.20;;;;;;6078527;23;20610;-89
2023/08/18 05:51:28;;;;;;;2.60;2.40;;;20.60;79.00;;;;;;6102133;23;20156;-88
2023/08/18 05:54:00;;;;;;;2.10;1.90;;;20.60;79.10;;;;;;6053530;23;20188;-89
2023/08/18 05:56:26;;;;;;;2.42;2.22;;;20.50;79.20;;;;;;6101931;23;20639;-88
2023/08/18 05:58:57;;;;;;;2.13;1.90;;;20.50;79.40;;;;;;6078114;23;20231;-88
2023/08/18 06:01:30;;;;;;;2.10;1.90;;;20.50;79.60;;;;;;6082891;23;20201;-88
2023/08/18 06:04:06;;;;;;;2.40;2.13;;;20.40;79.70;;;;;;6108500;23;20144;-88
2023/08/18 06:06:54;;;;;;;3.30;2.15;;;20.50;79.90;;;;;;6109781;23;20269;-88
2023/08/18 06:09:42;;;;;;;4.60;2.10;;;20.40;80.00;;;;;;6076857;23;20596;-90
2023/08/18 06:12:24;;;;;;;2.70;2.20;;;20.40;80.30;;;;;;6061039;23;20152;-88
2023/08/18 06:15:07;;;;;;;2.72;2.10;;;20.30;80.40;;;;;;6081598;23;20164;-89
2023/08/18 06:17:35;;;;;;;4.13;1.80;;;20.30;80.40;;;;;;6066530;23;20281;-87
2023/08/18 06:20:03;;;;;;;2.58;2.03;;;20.30;80.60;;;;;;6101150;23;20151;-88
2023/08/18 06:22:33;;;;;;;2.22;1.98;;;20.30;80.70;;;;;;6053264;23;20190;-88
2023/08/18 06:25:03;;;;;;;2.17;1.88;;;20.30;80.90;;;;;;6077848;23;20596;-88
2023/08/18 06:27:34;;;;;;;1.67;1.58;;;20.30;81.00;;;;;;6092994;23;20159;-88
2023/08/18 06:30:02;;;;;;;2.20;1.90;;;20.30;81.00;;;;;;6050090;23;20160;-88
2023/08/18 06:32:36;;;;;;;2.25;1.90;;;20.30;81.20;;;;;;6027352;23;20160;-88
2023/08/18 06:35:14;;;;;;;2.45;2.25;;;20.30;81.40;;;;;;6051179;23;20223;-88
2023/08/18 06:37:49;;;;;;;2.28;2.08;;;20.20;81.40;;;;;;5967235;23;20150;-88
2023/08/18 06:40:30;;;;;;;3.00;1.95;;;20.30;81.60;;;;;;5965338;23;20175;-88
2023/08/18 06:43:13;;;;;;;1.92;1.73;;;20.20;81.60;;;;;;5948140;23;20166;-88
2023/08/18 06:45:56;;;;;;;2.00;1.80;;;20.20;81.60;;;;;;5972445;23;20205;-91
2023/08/18 06:48:48;;;;;;;3.17;2.00;;;20.20;81.70;;;;;;6018531;23;20211;-88
2023/08/18 06:52:12;;;;;;;;;;;;;;;;;;;;;
2023/08/18 06:59:12;;;;;;;2.75;2.00;;;20.20;82.20;;;;;;5926687;24;20157;-89
2023/08/18 07:01:17;;;;;;;2.63;2.08;;;20.20;82.40;;;;;;5880060;24;20158;-87
2023/08/18 07:04:10;;;;;;;3.83;2.30;;;20.10;82.40;;;;;;5928285;24;20484;-89
2023/08/18 07:06:44;;;;;;;2.08;1.88;;;20.10;82.50;;;;;;5938042;24;20161;-89
2023/08/18 07:09:16;;;;;;;2.20;2.00;;;20.20;82.50;;;;;;5962491;24;20279;-88
2023/08/18 07:15:03;;;;;;;3.13;2.08;;;20.20;82.90;;;;;;5859887;24;20238;-88
2023/08/18 07:17:33;;;;;;;3.30;2.20;;;20.20;82.90;;;;;;5844493;24;20306;-89
2023/08/18 07:19:58;;;;;;;2.60;1.98;;;20.20;83.00;;;;;;5845281;24;20245;-88
2023/08/18 07:22:53;;;;;;;2.30;2.10;;;20.20;83.20;;;;;;5847162;24;20246;-88
2023/08/18 07:25:20;;;;;;;2.30;1.95;;;20.20;83.30;;;;;;5873022;24;20162;-88
2023/08/18 07:28:21;;;;;;;2.60;2.22;;;20.20;83.20;;;;;;5850160;24;20721;-88
2023/08/18 07:31:05;;;;;;;2.38;2.00;;;20.20;83.40;;;;;;5846599;24;20158;-88
2023/08/18 07:33:39;;;;;;;2.63;1.65;;;20.30;83.00;;;;;;5877815;24;20196;-88
2023/08/18 07:36:19;;;;;;;;;;;;;;;;;;;;;
2023/08/18 07:38:52;;;;;;;2.20;2.00;;;20.30;83.40;;;;;;5955921;24;20223;-87
2023/08/18 07:41:42;;;;;;;2.55;2.00;;;20.30;83.50;;;;;;5932586;24;20163;-87
2023/08/18 07:44:44;;;;;;;3.95;2.22;;;20.30;83.50;;;;;;5893857;24;20751;-87
2023/08/18 07:47:21;;;;;;;2.25;2.05;;;20.30;83.60;;;;;;5898670;24;20168;-87
2023/08/18 07:49:56;;;;;;;1.85;1.65;;;20.30;83.60;;;;;;5948666;24;20212;-87
2023/08/18 07:52:33;;;;;;;2.75;2.10;;;20.40;83.90;;;;;;5945832;24;20239;-88
2023/08/18 08:01:54;;;;;;;2.50;2.30;;;20.40;84.30;;;;;;5927214;24;20184;-89
2023/08/18 08:04:38;;;;;;;2.35;2.15;;;20.30;84.30;;;;;;5915501;24;20193;-89
2023/08/18 08:07:24;;;;;;;3.05;1.90;;;20.40;84.50;;;;;;5891917;24;20234;-89
2023/08/18 08:10:01;;;;;;;2.50;1.98;;;20.40;84.40;;;;;;5859532;24;20655;-90
2023/08/18 08:13:06;;;;;;;2.10;1.90;;;20.40;84.40;;;;;;5842385;24;20167;-89
2023/08/18 11:55:40;;;;;;;8.45;2.53;;;21.20;90.50;;;;;;6252889;23;20200;-88
2023/08/18 12:01:37;;;;;;;8.55;2.63;;;21.20;90.60;;;;;;6080438;23;20160;-89
2023/08/18 12:22:25;;;;;;;7.47;3.15;;;21.60;90.00;;;;;;6021143;23;20150;-88
2023/08/18 12:24:55;;;;;;;9.00;2.95;;;21.70;90.10;;;;;;6021349;23;20162;-88
2023/08/18 12:34:16;;;;;;;7.10;2.88;;;21.80;90.50;;;;;;5965162;24;20214;-90
2023/08/18 12:36:50;;;;;;;6.82;2.90;;;21.80;90.60;;;;;;5984417;23;20162;-92
2023/08/18 12:39:22;;;;;;;9.10;3.08;;;21.80;90.50;;;;;;6018627;23;20154;-90
2023/08/18 12:41:53;;;;;;;8.18;2.83;;;21.80;90.60;;;;;;6041154;23;20158;-89
2023/08/18 12:44:23;;;;;;;6.95;3.00;;;21.90;90.10;;;;;;6022675;23;20254;-89
2023/08/18 12:47:00;;;;;;;9.65;3.10;;;21.90;89.80;;;;;;6044369;23;20143;-89
2023/08/18 12:49:47;;;;;;;13.68;2.78;;;21.80;89.30;;;;;;6017928;23;20186;-89
2023/08/18 12:52:13;;;;;;;8.75;2.70;;;21.90;89.90;;;;;;6040375;23;20186;-88
2023/08/18 12:54:42;;;;;;;8.95;3.00;;;21.80;89.80;;;;;;6038765;23;20183;-88
2023/08/18 12:57:08;;;;;;;6.30;3.13;;;21.80;89.70;;;;;;6014898;23;20605;-87
2023/08/18 13:11:01;;;;;;;7.10;2.97;;;21.50;89.60;;;;;;6097063;23;21370;-87
2023/08/18 13:13:28;;;;;;;4.30;2.90;;;21.50;90.00;;;;;;6095442;23;20194;-87
2023/08/18 13:15:59;;;;;;;5.40;2.80;;;21.50;89.80;;;;;;6116617;23;20588;-86
2023/08/18 13:18:29;;;;;;;6.60;2.90;;;21.50;90.00;;;;;;6090684;23;20236;-88
2023/08/18 13:21:00;;;;;;;8.80;3.20;;;21.50;90.10;;;;;;6091160;23;20149;-88
2023/08/18 13:27:01;;;;;;;3.50;2.72;;;21.40;90.30;;;;;;6069172;23;20511;-87
2023/08/18 13:29:27;;;;;;;4.80;3.03;;;21.30;90.30;;;;;;6141042;23;20157;-87
2023/08/18 13:31:54;;;;;;;7.15;2.88;;;21.40;90.30;;;;;;6117579;23;20177;-87
2023/08/18 13:34:21;;;;;;;2.97;2.72;;;21.30;90.40;;;;;;6088868;23;20551;-87
2023/08/18 13:36:47;;;;;;;4.45;2.83;;;21.30;90.60;;;;;;6089079;23;20157;-87
2023/08/18 13:39:15;;;;;;;3.45;3.00;;;21.30;90.50;;;;;;6114084;23;20154;-88
2023/08/18 13:41:41;;;;;;;4.95;2.70;;;21.40;90.50;;;;;;6161765;23;20133;-88
2023/08/18 13:44:07;;;;;;;2.97;2.67;;;21.30;90.50;;;;;;6114508;23;20271;-88
2023/08/18 13:46:32;;;;;;;3.25;2.95;;;21.30;90.60;;;;;;6139101;23;20126;-88
2023/08/18 13:49:01;;;;;;;3.20;2.90;;;21.30;90.60;;;;;;6139201;23;20149;-88
2023/08/18 13:51:29;;;;;;;4.20;3.05;;;21.30;90.70;;;;;;6088934;23;20184;-89
2023/08/18 13:53:57;;;;;;;3.97;3.00;;;21.30;90.70;;;;;;6113207;23;20191;-88
2023/08/18 13:56:24;;;;;;;3.78;3.28;;;21.20;90.70;;;;;;6113482;23;20157;-88
2023/08/18 13:58:50;;;;;;;3.33;3.03;;;21.20;90.80;;;;;;6088802;23;20160;-88
2023/08/18 14:01:18;;;;;;;5.07;2.90;;;21.30;90.90;;;;;;6139301;23;20435;-88
2023/08/18 14:03:45;;;;;;;4.15;3.03;;;21.20;90.80;;;;;;6113695;23;20176;-89
2023/08/18 14:06:11;;;;;;;5.05;2.70;;;21.20;90.80;;;;;;6088981;23;20211;-88
2023/08/18 14:08:37;;;;;;;3.13;2.80;;;21.20;90.80;;;;;;6113457;23;20636;-88
2023/08/18 14:11:04;;;;;;;5.82;3.08;;;21.30;90.80;;;;;;6149939;23;20138;-88
2023/08/18 14:13:30;;;;;;;3.20;2.90;;;21.20;90.80;;;;;;6193315;23;20185;-88
2023/08/18 14:15:58;;;;;;;2.95;2.75;;;21.20;90.80;;;;;;6144288;23;20195;-88
2023/08/18 14:18:23;;;;;;;3.33;3.03;;;21.20;90.80;;;;;;6195491;23;20232;-87
2023/08/18 14:20:52;;;;;;;3.50;3.00;;;21.20;90.80;;;;;;6248667;23;20428;-87
2023/08/18 14:23:22;;;;;;;3.00;2.70;;;21.20;90.80;;;;;;6228230;23;20137;-87
2023/08/18 14:25:49;;;;;;;5.85;3.00;;;21.20;90.90;;;;;;6171732;23;20215;-87
2023/08/18 14:28:18;;;;;;;5.65;3.10;;;21.20;90.90;;;;;;6170143;23;20141;-87
2023/08/18 14:30:43;;;;;;;3.80;2.70;;;21.20;90.90;;;;;;6168652;23;20253;-87
2023/08/18 14:33:12;;;;;;;3.20;2.90;;;21.10;90.80;;;;;;6168977;23;20617;-86
2023/08/18 14:35:39;;;;;;;3.78;3.03;;;21.10;90.80;;;;;;6143604;23;20148;-86
2023/08/18 14:38:07;;;;;;;3.70;2.90;;;21.10;90.80;;;;;;6168501;23;20262;-86
2023/08/18 14:40:33;;;;;;;3.78;2.70;;;21.20;90.80;;;;;;6193493;23;20183;-87
2023/08/18 14:42:59;;;;;;;3.10;2.80;;;21.20;90.80;;;;;;6219826;23;20213;-87
2023/08/18 14:45:26;;;;;;;3.90;2.92;;;21.10;90.80;;;;;;6194399;23;20652;-87
2023/08/18 14:47:52;;;;;;;3.70;2.90;;;21.10;90.60;;;;;;6168071;23;20236;-87
2023/08/18 14:50:17;;;;;;;4.70;2.95;;;21.10;90.60;;;;;;6220797;23;20139;-87
2023/08/18 14:52:43;;;;;;;2.88;2.67;;;21.20;90.70;;;;;;6247918;23;20184;-87
2023/08/18 14:55:10;;;;;;;3.50;2.90;;;21.10;90.70;;;;;;6171764;23;20145;-88
2023/08/18 14:57:37;;;;;;;4.25;3.00;;;21.10;90.60;;;;;;6170450;23;20176;-87
2023/08/18 15:00:05;;;;;;;3.10;2.80;;;21.10;90.50;;;;;;6221056;23;20187;-87
2023/08/18 15:02:33;;;;;;;3.00;2.80;;;21.10;90.40;;;;;;6197106;23;20134;-87
2023/08/18 15:05:00;;;;;;;3.25;2.95;;;21.10;90.40;;;;;;6196084;23;20145;-87
2023/08/18 15:07:26;;;;;;;3.10;2.80;;;21.00;90.40;;;;;;6220601;23;20126;-86
2023/08/18 15:09:52;;;;;;;3.67;2.90;;;21.10;90.30;;;;;;6196565;23;20126;-86
2023/08/18 15:12:18;;;;;;;2.90;2.50;;;21.00;90.40;;;;;;6169732;23;20636;-87
2023/08/18 15:14:44;;;;;;;3.10;2.80;;;21.00;90.40;;;;;;6093194;23;20161;-87
2023/08/18 15:17:09;;;;;;;2.90;2.55;;;21.00;90.40;;;;;;6170006;23;20129;-87
2023/08/18 15:19:36;;;;;;;2.72;2.53;;;21.00;90.30;;;;;;6195131;23;20133;-87
2023/08/18 15:22:01;;;;;;;3.58;2.90;;;21.00;90.30;;;;;;6169649;23;20484;-87
2023/08/18 15:24:28;;;;;;;3.40;2.72;;;21.00;90.20;;;;;;6194813;23;20585;-87
2023/08/18 15:26:53;;;;;;;2.80;2.60;;;21.00;90.20;;;;;;6194719;23;20241;-87
2023/08/18 15:29:22;;;;;;;2.88;2.60;;;20.90;90.20;;;;;;6169613;23;20180;-87
2023/08/18 15:31:48;;;;;;;3.90;2.78;;;20.90;90.10;;;;;;6195316;23;20152;-87
2023/08/18 15:34:13;;;;;;;3.67;2.60;;;21.00;90.00;;;;;;6169998;23;20176;-87
2023/08/18 15:36:39;;;;;;;3.50;2.50;;;21.00;90.00;;;;;;6144696;23;20141;-87
2023/08/18 15:39:05;;;;;;;2.83;2.60;;;21.00;90.30;;;;;;6194503;23;20219;-87
2023/08/18 15:41:33;;;;;;;3.38;2.72;;;21.00;89.50;;;;;;6194646;23;20240;-87
2023/08/18 15:44:00;;;;;;;3.88;2.42;;;21.00;89.40;;;;;;6169112;23;20138;-87
2023/08/18 15:46:25;;;;;;;2.50;2.30;;;21.00;89.50;;;;;;6169284;23;20184;-87
2023/08/18 15:48:51;;;;;;;2.75;2.55;;;20.90;89.20;;;;;;6169730;23;20468;-87
2023/08/18 15:51:18;;;;;;;3.22;2.60;;;21.00;89.10;;;;;;6169381;23;20152;-87
2023/08/18 15:53:43;;;;;;;3.00;2.67;;;20.90;88.90;;;;;;6169184;23;20177;-87
2023/08/18 15:56:10;;;;;;;2.60;2.40;;;20.90;88.60;;;;;;6193925;23;20133;-87
2023/08/18 15:58:36;;;;;;;2.40;2.20;;;20.90;88.50;;;;;;6093378;23;20217;-87
2023/08/18 16:01:02;;;;;;;2.53;2.30;;;20.90;88.10;;;;;;6168995;23;20187;-87
2023/08/18 16:03:28;;;;;;;2.30;2.10;;;21.00;87.80;;;;;;6144296;23;20199;-86
2023/08/18 16:05:54;;;;;;;2.45;2.25;;;20.90;87.70;;;;;;6143460;23;20607;-87
2023/08/18 16:08:21;;;;;;;2.47;2.13;;;20.90;87.20;;;;;;6144087;23;20149;-87
2023/08/18 16:10:46;;;;;;;3.92;2.10;;;20.90;87.30;;;;;;6194263;23;20277;-87
2023/08/18 16:13:12;;;;;;;2.35;2.15;;;20.90;87.20;;;;;;6169007;23;20260;-87
2023/08/18 16:15:40;;;;;;;2.45;2.25;;;20.90;86.90;;;;;;6169104;23;20216;-88
2023/08/18 16:18:07;;;;;;;3.47;2.30;;;20.90;87.70;;;;;;6169113;23;20634;-87
2023/08/18 16:20:33;;;;;;;3.17;2.30;;;20.90;86.90;;;;;;6118706;23;20157;-87
2023/08/18 16:22:58;;;;;;;2.33;2.13;;;20.90;87.10;;;;;;6169303;23;20153;-87
2023/08/18 16:25:24;;;;;;;2.42;2.08;;;20.90;86.60;;;;;;6092909;23;20463;-87
2023/08/18 16:27:51;;;;;;;3.13;2.20;;;20.90;86.60;;;;;;6194249;23;20145;-87
2023/08/18 16:30:17;;;;;;;2.20;2.10;;;20.80;86.30;;;;;;6194016;23;20148;-87
2023/08/18 16:32:42;;;;;;;2.10;2.00;;;20.90;86.30;;;;;;6168982;23;20453;-86
2023/08/18 16:35:09;;;;;;;2.30;2.10;;;20.90;86.00;;;;;;6194596;23;20207;-87
2023/08/18 16:37:34;;;;;;;2.00;1.90;;;20.80;85.80;;;;;;6193941;23;20207;-87
2023/08/18 16:40:00;;;;;;;2.20;2.00;;;20.80;86.00;;;;;;6144344;23;20584;-87
2023/08/18 16:42:26;;;;;;;2.80;1.80;;;20.90;85.40;;;;;;6169593;23;20149;-87
2023/08/18 16:44:52;;;;;;;2.40;2.20;;;20.90;85.60;;;;;;6193944;23;20157;-87
2023/08/18 16:47:18;;;;;;;2.17;2.08;;;20.90;85.40;;;;;;6169093;23;20148;-87
2023/08/18 16:49:44;;;;;;;2.60;2.40;;;20.90;85.60;;;;;;6170014;23;20137;-86
2023/08/18 16:52:09;;;;;;;2.05;1.92;;;20.90;86.00;;;;;;6169376;23;20232;-87
2023/08/18 16:54:35;;;;;;;2.08;1.98;;;20.80;85.40;;;;;;6146037;23;20200;-87
2023/08/18 16:57:01;;;;;;;2.10;1.90;;;20.90;85.10;;;;;;6144633;23;20140;-87
2023/08/18 16:59:27;;;;;;;2.28;2.08;;;20.80;84.60;;;;;;6169663;23;20152;-87
2023/08/18 17:01:54;;;;;;;1.90;1.80;;;20.80;84.60;;;;;;6193445;23;20264;-87
2023/08/18 17:04:20;;;;;;;1.83;1.73;;;20.70;84.30;;;;;;6169260;23;20192;-87
2023/08/18 17:06:46;;;;;;;2.85;2.30;;;20.90;84.70;;;;;;6168314;23;20153;-87
2023/08/18 17:09:11;;;;;;;1.88;1.70;;;20.80;84.60;;;;;;6144306;23;20228;-87
2023/08/18 17:11:37;;;;;;;2.30;2.10;;;20.70;84.80;;;;;;6169523;23;20181;-87
2023/08/18 17:14:03;;;;;;;2.22;1.90;;;20.80;84.10;;;;;;6170397;23;20193;-86
2023/08/18 17:16:29;;;;;;;2.03;1.80;;;20.80;83.70;;;;;;6202471;23;20183;-87
2023/08/18 17:18:56;;;;;;;2.20;2.10;;;20.80;83.60;;;;;;6177457;23;20149;-87
2023/08/18 17:21:23;;;;;;;2.25;2.00;;;20.80;84.30;;;;;;6177116;23;20565;-87
2023/08/18 17:23:52;;;;;;;2.25;1.95;;;20.70;83.50;;;;;;6152548;23;20153;-87
2023/08/18 17:26:18;;;;;;;2.20;2.00;;;20.70;83.40;;;;;;6194182;23;20462;-87
2023/08/18 17:28:44;;;;;;;1.83;1.73;;;20.70;83.20;;;;;;6193515;23;20137;-86
2023/08/18 17:31:14;;;;;;;2.25;2.05;;;20.70;83.00;;;;;;6193582;23;20152;-88
2023/08/18 17:33:44;;;;;;;2.47;2.13;;;20.70;83.40;;;;;;6142786;23;20682;-87
2023/08/18 17:36:13;;;;;;;1.80;1.70;;;20.70;83.50;;;;;;6143422;23;20152;-87
2023/08/18 17:38:41;;;;;;;1.92;1.83;;;20.70;83.00;;;;;;6143200;23;20153;-87
2023/08/18 17:41:09;;;;;;;2.30;1.67;;;20.70;83.40;;;;;;6142658;23;20490;-87
2023/08/18 17:43:35;;;;;;;1.90;1.80;;;20.70;82.50;;;;;;6142789;23;20168;-87
2023/08/18 17:46:01;;;;;;;2.00;1.90;;;20.70;82.60;;;;;;6143802;23;20584;-87